Twr-7 — TWR-7 — position and weather

sailwx.info

Track history (hours):
 
Tides and Currents Weather Stations Pressure Air Temp Water Temp Dewpoint Dewpoint Depression Visibility Wind Speed Wind Dir Waves Ship Positions

Twr-7

Last reported at 2015-Mar-28 22:23 UTC. Time now 2015-Mar-30 09:25 UTC.
Position N 49°16' W 124°09'.

; draft 1.5 m.

Type: Military. MMSI: 369970258.

Date/timePositionNaut miles runAvg speedWind from/ knotsBaromVisibWave heightAir tempDewpointWater temp
2015-Mar-28 22:23N 49°16' W 124°09'8 6.8
2015-Mar-28 21:08N 49°19' W 123°57'1 0.3
2015-Mar-28 18:31N 49°19' W 123°58'0 0.4
2015-Mar-28 17:33N 49°19' W 123°57'0 0.2
2015-Mar-28 15:29N 49°19' W 123°58'7 7.3
2015-Mar-28 14:31N 49°16' W 124°08'1 0.1
2015-Mar-27 20:10N 49°16' W 124°09'1 1.3
2015-Mar-27 19:31N 49°16' W 124°08'7 7.3
2015-Mar-27 18:29N 49°16' W 123°56'2 0.8
2015-Mar-27 16:24N 49°16' W 123°54'10 5.0
2015-Mar-27 14:28N 49°16' W 124°09'7 0.3
2015-Mar-26 16:17N 49°16' W 123°58'1 1.4
2015-Mar-26 15:18N 49°16' W 124°00'6 0.1
2015-Mar-24 14:32N 49°16' W 124°09'  
2015-Mar-22 01:06N 49°16' W 124°08'8 7.4
2015-Mar-22 00:04N 49°19' W 123°58'3 0.9
2015-Mar-21 20:15N 49°20' W 124°03'0 0.1
2015-Mar-21 18:14N 49°20' W 124°03'0 0.5
2015-Mar-21 17:31N 49°20' W 124°03'1 0.5
2015-Mar-21 15:33N 49°19' W 124°03'5 5.0
2015-Mar-21 14:30N 49°16' W 124°09'8 0.2
2015-Mar-19 21:33N 49°22' W 124°00'1 0.9
2015-Mar-19 20:31N 49°21' W 123°59'1 1.2
2015-Mar-19 19:32N 49°21' W 124°01'1 1.0
2015-Mar-19 18:28N 49°21' W 123°59'0 0.3
2015-Mar-19 17:18N 49°21' W 123°59'1 0.8
2015-Mar-19 16:25N 49°21' W 123°58'  
Track history (hours):
 
Tides and Currents Weather Stations Pressure Air Temp Water Temp Dewpoint Dewpoint Depression Visibility Wind Speed Wind Dir Waves Ship Positions

Twr-7

Last reported at 2015-Mar-28 22:23 UTC. Time now 2015-Mar-30 09:25 UTC.
Position N 49°16' W 124°09'.

; draft 1.5 m.

Type: Military. MMSI: 369970258.

Date/timePositionNaut miles runAvg speedWind from/ knotsBaromVisibWave heightAir tempDewpointWater temp
2015-Mar-28 22:23N 49°16' W 124°09'8 6.8
2015-Mar-28 21:08N 49°19' W 123°57'1 0.3
2015-Mar-28 18:31N 49°19' W 123°58'0 0.4
2015-Mar-28 17:33N 49°19' W 123°57'0 0.2
2015-Mar-28 15:29N 49°19' W 123°58'7 7.3
2015-Mar-28 14:31N 49°16' W 124°08'1 0.1
2015-Mar-27 20:10N 49°16' W 124°09'1 1.3
2015-Mar-27 19:31N 49°16' W 124°08'7 7.3
2015-Mar-27 18:29N 49°16' W 123°56'2 0.8
2015-Mar-27 16:24N 49°16' W 123°54'10 5.0
2015-Mar-27 14:28N 49°16' W 124°09'7 0.3
2015-Mar-26 16:17N 49°16' W 123°58'1 1.4
2015-Mar-26 15:18N 49°16' W 124°00'6 0.1
2015-Mar-24 14:32N 49°16' W 124°09'  
2015-Mar-22 01:06N 49°16' W 124°08'8 7.4
2015-Mar-22 00:04N 49°19' W 123°58'3 0.9
2015-Mar-21 20:15N 49°20' W 124°03'0 0.1
2015-Mar-21 18:14N 49°20' W 124°03'0 0.5
2015-Mar-21 17:31N 49°20' W 124°03'1 0.5
2015-Mar-21 15:33N 49°19' W 124°03'5 5.0
2015-Mar-21 14:30N 49°16' W 124°09'8 0.2
2015-Mar-19 21:33N 49°22' W 124°00'1 0.9
2015-Mar-19 20:31N 49°21' W 123°59'1 1.2
2015-Mar-19 19:32N 49°21' W 124°01'1 1.0
2015-Mar-19 18:28N 49°21' W 123°59'0 0.3
2015-Mar-19 17:18N 49°21' W 123°59'1 0.8
2015-Mar-19 16:25N 49°21' W 123°58'  

Dump ship's entire track history